Weather observations for the past three days for
Sparrevohn Airways Facilities Sector
Metric (Imperial)
Date Time (akdt) Wind (kph) Vis. (km) Weather Sky Cond. Temperature (ºC) Relative Humidity Wind Chill (°C) Heat Index (°C) Pressure Precipitation (cm)
Air Dwpt 6 hour altimeter (cm) sea level (mb) 1 hr 3 hr 6 hr
Max. Min.
03 16:55 W 11 16.09 Mostly Cloudy BKN043 6 0 66% 4 76.2 1017.2
03 15:55 SW 7 16.09 Mostly Cloudy BKN045 BKN180 5.9 -1.1 6.4 2.9 61% 5 76.23 1017.6
03 14:55 SW 6 16.09 Overcast FEW025 OVC042 5 -1 66% 76.23 1017.9
03 13:55 SW 7 16.09 Overcast OVC045 5 0 70% 4 76.28 1018.4
03 12:55 S 7 16.09 Mostly Cloudy BKN047 5 0 70% 4 76.28 1018.4
03 11:55 S 7 16.09 Mostly Cloudy FEW017 BKN048 4 0 75% 2 76.28 1018.7
03 10:55 S 7 16.09 Mostly Cloudy BKN050 3 0 81% 1 76.3 1018.9
03 09:55 W 6 16.09 Mostly Cloudy BKN035 3 -0.2 3.4 0.9 80% 76.3 1018.9 0.03
03 08:55 S 4 16.09 Partly Cloudy FEW015 SCT036 3 0 81% 76.28 1018.8
03 07:55 Calm 16.09 Light Showers Rain OVC028 2 0 87% 76.28 1018.5
03 06:55 SW 2 16.09 Overcast OVC026 1.4 -0.2 89% 76.28 1018.8 0.03
03 05:55 NW 4 16.09 Mostly Cloudy FEW009 BKN026 BKN039 1 0 93% 76.28 1018.6
03 04:55 SW 4 16.09 Overcast FEW009 OVC020 1 0 93% 76.28 1018.6 0.03
03 03:55 S 7 16.09 Light Showers Rain FEW006 OVC022 1 0.2 2.2 0.4 94% -1 76.25 1018.4 0.13
03 02:55 S 19 16.09 Light Showers Rain FEW006 OVC019 1 0 93% -3 76.28 1018.5
03 01:55 S 7 11.27 Light Snow OVC005 1 0 93% -1 76.25 1018.6 0.1
03 00:55 Vrbl 9 16.09 Light Showers Rain OVC008 1.6 0.4 92% -1 76.23 1018.3 0.03
02 23:55 S 13 16.09 Light Showers Rain SCT007 OVC020 2 1 93% -1 76.17 1017.6
02 22:55 S 15 16.09 Overcast SCT007 BKN016 OVC044 2 1 93% -2 76.15 1017.2 0.03
02 21:55 S 17 16.09 Light Showers Rain OVC008 1.9 0.7 4.3 1.7 92% -2 76.1 1016.5 0.03 0.15
02 20:55 S 15 G 35 16.09 Light Showers Rain OVC009 2 1 93% -2 76.07 1016.0 0.03
02 19:55 S 17 16.09 Overcast OVC009 3 1 87% -1 76.02 1015.4 0.03
02 18:55 SW 22 G 31 11.27 Light Rain OVC008 2.4 1 91% -2 76 1015.1 0.03 0.08
02 17:55 S 19 16.09 Mostly Cloudy BKN010 3 2 93% -1 75.97 1014.6 0.05
02 16:55 SW 20 6.44 Light Showers Rain OVC007 2 1 93% -2 75.95 1014.5 0.03
02 15:55 S 26 G 37 16.09 Light Showers Rain BKN021 4.1 0.5 4 0.2 78% -0 75.95 1014.1
02 14:55 S 24 G 39 16.09 Mostly Cloudy BKN018 4 -1 70% -0 75.9 1013.6
02 13:55 S 26 G 39 16.09 Light Showers Rain OVC013 2 0 87% -3 75.87 1013.5
02 12:55 S 26 G 39 11.27 Light Rain OVC012 1.3 -0.4 89% -4 75.84 1013.0
02 11:55 S 28 G 44 12.87 Light Showers Rain OVC011 1 -1 87% -5 75.79 1012.3
02 10:55 S 30 12.87 Light Snow OVC007 1 -1 87% -5 75.72 1011.5
02 09:55 S 37 G 44 9.66 Light Snow and Breezy OVC007 0.3 -0.7 0.6 -0.1 93% -6 75.62 1010.2
02 08:55 S 26 G 41 4.02 Light Snow OVC006 0 -1 93% -6 75.54 1009.2
02 07:55 S 33 G 44 9.66 Light Snow and Breezy OVC007 0 -1 93% -6 75.44 1007.8
02 06:55 S 28 G 44 2.41 Light Snow OVC008 0 -1 93% -6 75.34 1006.5
02 05:55 S 28 G 50 11.27 Light Snow OVC008 0 -1 93% -6 75.29 1005.7
02 04:55 S 26 G 39 9.66 Light Snow OVC008 0 -1 93% -6 75.23 1004.9
02 03:55 S 28 G 44 16.09 Light Snow OVC009 0.5 -0.9 1.8 0.5 90% -5 75.21 1004.3 0.03
02 02:55 S 28 G 50 16.09 Light Rain OVC010 1 -1 87% -5 75.13 1003.3
02 01:55 S 35 G 44 16.09 Overcast and Breezy OVC010 1 -1 87% -5 75.03 1001.9
02 00:55 S 24 G 43 16.09 Light Showers Rain OVC009 1 -0.4 91% -4 74.93 1000.6 0.03
01 23:55 S 26 G 37 16.09 Light Rain Snow OVC008 1 0 93% -4 74.83 999.3 0.03
01 22:55 S 20 G 37 16.09 Light Rain OVC009 1 0 93% -4 74.75 997.9
01 21:55 S 30 G 44 16.09 Light Showers Rain OVC015 1.6 -0.4 3 1.2 87% -4 74.65 996.5 0.08
01 20:55 S 15 16.09 Light Rain OVC022 1 0 93% -3 74.57 995.8
01 19:55 SE 17 G 39 16.09 Light Rain OVC032 1 0 93% -3 74.5 994.7 0.03
01 18:55 SE 24 G 30 16.09 Light Rain OVC030 1.6 -0.4 87% -3 74.47 993.9 0.05 0.05
01 17:55 SE 15 16.09 Light Rain OVC017 2 0 87% -2 74.42 993.4 0.03
01 16:55 SE 20 16.09 Light Rain OVC019 2 0 87% -2 74.4 993.0
01 15:55 SE 20 G 41 16.09 Light Rain OVC023 2.8 -0.6 5.4 1.6 79% -1 74.37 992.6 0.03
01 14:55 SE 20 G 35 16.09 Light Rain OVC025 2 -1 81% -2 74.4 992.9
01 13:55 SE 20 G 41 16.09 Light Rain OVC024 2 -1 81% -2 74.42 993.1 0.03
01 12:55 Vrbl 11 16.09 Light Rain OVC018 2 -0.1 86% -1 74.42 993.3
01 11:55 SE 24 G 43 16.09 Light Drizzle OVC038 3 -1 75% -2 74.4 992.7
01 10:55 SE 33 G 48 16.09 Mostly Cloudy and Breezy BKN060 5 -3 57% 0 74.35 992.0
01 09:55 E 2 16.09 Overcast OVC042 3.6 -2 5.7 2 67% 74.4 992.8
01 08:55 SE 33 G 56 16.09 Light Showers Rain and Breezy OVC028 3 -2 70% -2 74.42 993.6
01 07:55 SE 39 G 69 16.09 Light Rain and Breezy OVC034 5 -3 57% -0 74.47 993.7
01 06:55 SE 44 G 61 16.09 Light Rain and Windy OVC047 5 -4.7 50% -1 74.5 994.1
01 05:55 SE 43 G 59 16.09 Overcast and Windy OVC055 6 -5 46% 1 74.55 994.7
01 04:55 SE 39 G 54 16.09 Overcast and Breezy OVC050 5 -4 53% -0 74.6 995.5
01 03:55 SE 31 G 63 16.09 Light Showers Rain OVC047 4.9 -3.8 5.6 3.8 54% 0 74.65 996.2
01 02:55 SE 31 G 56 16.09 Mostly Cloudy BKN075 BKN160 5 -5 49% 0 74.68 996.8
01 01:55 SE 37 G 59 16.09 Mostly Cloudy and Breezy BKN070 BKN110 BKN130 BKN180 5 -5 49% -0 74.73 997.4
01 00:55 SE 52 G 74 16.09 Mostly Cloudy and Windy BKN055 BKN120 5.5 -5.2 46% -0 74.75 997.6
30 23:55 SE 54 G 81 16.09 Overcast and Windy FEW065 OVC075 6 -5 46% 0 74.75 997.8
30 22:55 SE 52 G 93 16.09 Overcast and Windy SCT049 OVC100 5 -5 49% -1 74.8 998.4
30 21:55 SE 63 G 78 16.09 Light Rain and Windy FEW026 BKN035 BKN110 4.5 -4.2 5.4 3 54% -2 74.85 999.3
30 20:55 SE 39 G 57 16.09 Light Showers Rain and Breezy OVC038 3 -2 70% -3 74.9 999.9
30 19:55 SE 37 G 65 16.09 Overcast and Breezy OVC050 5 -3 57% -0 74.96 1000.4
30 18:55 SE 37 G 70 16.09 Mostly Cloudy and Breezy BKN050 5.4 -4.3 50% 0 74.93 1000.2
30 17:55 SE 28 G 50 16.09 Overcast OVC049 5 -3 57% 1 75.01 1001.2
Date Time (akdt) Wind (kph) Vis. (km) Weather Sky Cond. Air Dwpt Max. Min. Relative Humidity Wind Chill (°C) Heat Index (°C) altimeter (cm) sea level (mb) 1 hr 3 hr 6 hr
6 hour
Temperature (ºC) Pressure Precipitation (cm)